sensor_id;sensor_type;location;lat;lon;timestamp;P1;P2;P0
72329;PMS5003;69154;52.076;5.110;2023-06-14T00:02:07;13;11;
72329;PMS5003;69154;52.076;5.110;2023-06-14T00:04:32;11;10;
72329;PMS5003;69154;52.076;5.110;2023-06-14T00:06:57;10;10;
72329;PMS5003;69154;52.076;5.110;2023-06-14T00:09:22;11;10;
72329;PMS5003;69154;52.076;5.110;2023-06-14T00:11:47;10;10;
72329;PMS5003;69154;52.076;5.110;2023-06-14T00:14:13;11;10;
72329;PMS5003;69154;52.076;5.110;2023-06-14T00:16:37;12;12;
72329;PMS5003;69154;52.076;5.110;2023-06-14T00:19:03;14;13;
72329;PMS5003;69154;52.076;5.110;2023-06-14T00:21:28;12;12;
72329;PMS5003;69154;52.076;5.110;2023-06-14T00:23:53;14;13;
72329;PMS5003;69154;52.076;5.110;2023-06-14T00:26:18;12;11;
72329;PMS5003;69154;52.076;5.110;2023-06-14T00:28:43;10;10;
72329;PMS5003;69154;52.076;5.110;2023-06-14T00:31:08;11;11;
72329;PMS5003;69154;52.076;5.110;2023-06-14T00:33:33;11;11;
72329;PMS5003;69154;52.076;5.110;2023-06-14T00:35:58;11;11;
72329;PMS5003;69154;52.076;5.110;2023-06-14T00:38:23;10;10;
72329;PMS5003;69154;52.076;5.110;2023-06-14T00:40:48;13;12;
72329;PMS5003;69154;52.076;5.110;2023-06-14T00:43:13;10;10;
72329;PMS5003;69154;52.076;5.110;2023-06-14T00:45:38;11;11;
72329;PMS5003;69154;52.076;5.110;2023-06-14T00:48:03;13;13;
72329;PMS5003;69154;52.076;5.110;2023-06-14T00:50:28;13;13;
72329;PMS5003;69154;52.076;5.110;2023-06-14T00:52:53;12;11;
72329;PMS5003;69154;52.076;5.110;2023-06-14T00:55:18;11;10;
72329;PMS5003;69154;52.076;5.110;2023-06-14T00:57:44;13;13;
72329;PMS5003;69154;52.076;5.110;2023-06-14T01:00:09;11;11;
72329;PMS5003;69154;52.076;5.110;2023-06-14T01:02:34;15;12;
72329;PMS5003;69154;52.076;5.110;2023-06-14T01:04:59;11;11;
72329;PMS5003;69154;52.076;5.110;2023-06-14T01:07:28;11;11;
72329;PMS5003;69154;52.076;5.110;2023-06-14T01:09:52;14;12;
72329;PMS5003;69154;52.076;5.110;2023-06-14T01:12:15;12;11;
72329;PMS5003;69154;52.076;5.110;2023-06-14T01:14:39;11;10;
72329;PMS5003;69154;52.076;5.110;2023-06-14T01:17:04;12;12;
72329;PMS5003;69154;52.076;5.110;2023-06-14T01:19:29;11;11;
72329;PMS5003;69154;52.076;5.110;2023-06-14T01:21:55;13;12;
72329;PMS5003;69154;52.076;5.110;2023-06-14T01:24:20;10;9;
72329;PMS5003;69154;52.076;5.110;2023-06-14T01:26:45;12;12;
72329;PMS5003;69154;52.076;5.110;2023-06-14T01:29:10;11;11;
72329;PMS5003;69154;52.076;5.110;2023-06-14T01:31:35;9;9;
72329;PMS5003;69154;52.076;5.110;2023-06-14T01:34:01;10;10;
72329;PMS5003;69154;52.076;5.110;2023-06-14T01:36:26;10;10;
72329;PMS5003;69154;52.076;5.110;2023-06-14T01:38:51;13;12;
72329;PMS5003;69154;52.076;5.110;2023-06-14T01:41:16;11;11;
72329;PMS5003;69154;52.076;5.110;2023-06-14T01:43:41;10;10;
72329;PMS5003;69154;52.076;5.110;2023-06-14T01:46:07;12;10;
72329;PMS5003;69154;52.076;5.110;2023-06-14T01:48:32;10;10;
72329;PMS5003;69154;52.076;5.110;2023-06-14T01:50:57;12;11;
72329;PMS5003;69154;52.076;5.110;2023-06-14T01:53:22;12;10;
72329;PMS5003;69154;52.076;5.110;2023-06-14T01:55:47;11;11;
72329;PMS5003;69154;52.076;5.110;2023-06-14T01:58:12;9;9;
72329;PMS5003;69154;52.076;5.110;2023-06-14T02:00:37;9;9;
72329;PMS5003;69154;52.076;5.110;2023-06-14T02:03:02;12;12;
72329;PMS5003;69154;52.076;5.110;2023-06-14T02:05:27;11;10;
72329;PMS5003;69154;52.076;5.110;2023-06-14T02:07:52;10;10;
72329;PMS5003;69154;52.076;5.110;2023-06-14T02:10:17;11;10;
72329;PMS5003;69154;52.076;5.110;2023-06-14T02:12:42;12;12;
72329;PMS5003;69154;52.076;5.110;2023-06-14T02:15:08;12;12;
72329;PMS5003;69154;52.076;5.110;2023-06-14T02:17:33;10;10;
72329;PMS5003;69154;52.076;5.110;2023-06-14T02:19:58;12;11;
72329;PMS5003;69154;52.076;5.110;2023-06-14T02:22:23;11;10;
72329;PMS5003;69154;52.076;5.110;2023-06-14T02:24:48;11;10;
72329;PMS5003;69154;52.076;5.110;2023-06-14T02:27:14;14;14;
72329;PMS5003;69154;52.076;5.110;2023-06-14T02:29:39;10;10;
72329;PMS5003;69154;52.076;5.110;2023-06-14T02:32:04;11;10;
72329;PMS5003;69154;52.076;5.110;2023-06-14T02:34:29;9;9;
72329;PMS5003;69154;52.076;5.110;2023-06-14T02:36:54;10;10;
72329;PMS5003;69154;52.076;5.110;2023-06-14T02:39:19;10;10;
72329;PMS5003;69154;52.076;5.110;2023-06-14T02:41:44;13;12;
72329;PMS5003;69154;52.076;5.110;2023-06-14T02:44:10;9;9;
72329;PMS5003;69154;52.076;5.110;2023-06-14T02:46:35;11;10;
72329;PMS5003;69154;52.076;5.110;2023-06-14T02:49:00;11;10;
72329;PMS5003;69154;52.076;5.110;2023-06-14T02:51:25;11;11;
72329;PMS5003;69154;52.076;5.110;2023-06-14T02:53:50;11;11;
72329;PMS5003;69154;52.076;5.110;2023-06-14T02:56:15;10;10;
72329;PMS5003;69154;52.076;5.110;2023-06-14T02:58:40;11;11;
72329;PMS5003;69154;52.076;5.110;2023-06-14T03:01:06;11;10;
72329;PMS5003;69154;52.076;5.110;2023-06-14T03:03:31;10;10;
72329;PMS5003;69154;52.076;5.110;2023-06-14T03:05:56;13;12;
72329;PMS5003;69154;52.076;5.110;2023-06-14T03:08:21;10;10;
72329;PMS5003;69154;52.076;5.110;2023-06-14T03:10:46;9;9;
72329;PMS5003;69154;52.076;5.110;2023-06-14T03:13:11;11;11;
72329;PMS5003;69154;52.076;5.110;2023-06-14T03:15:36;11;11;
72329;PMS5003;69154;52.076;5.110;2023-06-14T03:18:01;11;11;
72329;PMS5003;69154;52.076;5.110;2023-06-14T03:20:26;10;10;
72329;PMS5003;69154;52.076;5.110;2023-06-14T03:22:52;10;10;
72329;PMS5003;69154;52.076;5.110;2023-06-14T03:25:17;12;12;
72329;PMS5003;69154;52.076;5.110;2023-06-14T03:27:42;11;11;
72329;PMS5003;69154;52.076;5.110;2023-06-14T03:30:07;13;13;
72329;PMS5003;69154;52.076;5.110;2023-06-14T03:32:33;11;10;
72329;PMS5003;69154;52.076;5.110;2023-06-14T03:34:58;14;14;
72329;PMS5003;69154;52.076;5.110;2023-06-14T03:37:24;13;11;
72329;PMS5003;69154;52.076;5.110;2023-06-14T03:39:49;11;11;
72329;PMS5003;69154;52.076;5.110;2023-06-14T03:42:14;11;11;
72329;PMS5003;69154;52.076;5.110;2023-06-14T03:44:39;12;11;
72329;PMS5003;69154;52.076;5.110;2023-06-14T03:47:04;10;10;
72329;PMS5003;69154;52.076;5.110;2023-06-14T03:49:29;13;11;
72329;PMS5003;69154;52.076;5.110;2023-06-14T03:51:54;10;10;
72329;PMS5003;69154;52.076;5.110;2023-06-14T03:54:19;12;12;
72329;PMS5003;69154;52.076;5.110;2023-06-14T03:56:45;12;11;
72329;PMS5003;69154;52.076;5.110;2023-06-14T03:59:10;9;9;
72329;PMS5003;69154;52.076;5.110;2023-06-14T04:01:35;10;10;
72329;PMS5003;69154;52.076;5.110;2023-06-14T04:04:00;11;11;
72329;PMS5003;69154;52.076;5.110;2023-06-14T04:06:25;10;10;
72329;PMS5003;69154;52.076;5.110;2023-06-14T04:08:50;8;8;
72329;PMS5003;69154;52.076;5.110;2023-06-14T04:11:15;10;10;
72329;PMS5003;69154;52.076;5.110;2023-06-14T04:13:41;10;10;
72329;PMS5003;69154;52.076;5.110;2023-06-14T04:16:06;12;10;
72329;PMS5003;69154;52.076;5.110;2023-06-14T04:18:31;12;11;
72329;PMS5003;69154;52.076;5.110;2023-06-14T04:20:56;10;10;
72329;PMS5003;69154;52.076;5.110;2023-06-14T04:23:21;11;10;
72329;PMS5003;69154;52.076;5.110;2023-06-14T04:25:47;11;11;
72329;PMS5003;69154;52.076;5.110;2023-06-14T04:28:12;11;11;
72329;PMS5003;69154;52.076;5.110;2023-06-14T04:30:37;12;12;
72329;PMS5003;69154;52.076;5.110;2023-06-14T04:33:02;13;11;
72329;PMS5003;69154;52.076;5.110;2023-06-14T04:35:27;11;11;
72329;PMS5003;69154;52.076;5.110;2023-06-14T04:37:52;13;11;
72329;PMS5003;69154;52.076;5.110;2023-06-14T04:40:18;11;10;
72329;PMS5003;69154;52.076;5.110;2023-06-14T04:42:43;11;10;
72329;PMS5003;69154;52.076;5.110;2023-06-14T04:45:09;9;9;
72329;PMS5003;69154;52.076;5.110;2023-06-14T04:47:34;10;10;
72329;PMS5003;69154;52.076;5.110;2023-06-14T04:49:59;10;10;
72329;PMS5003;69154;52.076;5.110;2023-06-14T04:52:24;11;11;
72329;PMS5003;69154;52.076;5.110;2023-06-14T04:54:50;11;11;
72329;PMS5003;69154;52.076;5.110;2023-06-14T04:57:15;11;10;
72329;PMS5003;69154;52.076;5.110;2023-06-14T04:59:41;12;12;
72329;PMS5003;69154;52.076;5.110;2023-06-14T05:02:06;13;13;
72329;PMS5003;69154;52.076;5.110;2023-06-14T05:04:32;11;10;
72329;PMS5003;69154;52.076;5.110;2023-06-14T05:06:56;13;11;
72329;PMS5003;69154;52.076;5.110;2023-06-14T05:09:21;10;10;
72329;PMS5003;69154;52.076;5.110;2023-06-14T05:11:47;13;12;
72329;PMS5003;69154;52.076;5.110;2023-06-14T05:14:12;11;11;
72329;PMS5003;69154;52.076;5.110;2023-06-14T05:16:37;12;12;
72329;PMS5003;69154;52.076;5.110;2023-06-14T05:19:02;13;12;
72329;PMS5003;69154;52.076;5.110;2023-06-14T05:21:27;12;12;
72329;PMS5003;69154;52.076;5.110;2023-06-14T05:23:52;10;10;
72329;PMS5003;69154;52.076;5.110;2023-06-14T05:26:19;11;10;
72329;PMS5003;69154;52.076;5.110;2023-06-14T05:28:43;12;12;
72329;PMS5003;69154;52.076;5.110;2023-06-14T05:31:08;13;12;
72329;PMS5003;69154;52.076;5.110;2023-06-14T05:33:33;12;11;
72329;PMS5003;69154;52.076;5.110;2023-06-14T05:35:59;11;11;
72329;PMS5003;69154;52.076;5.110;2023-06-14T05:38:24;10;10;
72329;PMS5003;69154;52.076;5.110;2023-06-14T05:40:49;11;10;
72329;PMS5003;69154;52.076;5.110;2023-06-14T05:43:14;10;10;
72329;PMS5003;69154;52.076;5.110;2023-06-14T05:45:39;11;11;
72329;PMS5003;69154;52.076;5.110;2023-06-14T05:48:04;13;13;
72329;PMS5003;69154;52.076;5.110;2023-06-14T05:50:30;13;12;
72329;PMS5003;69154;52.076;5.110;2023-06-14T05:52:54;11;11;
72329;PMS5003;69154;52.076;5.110;2023-06-14T05:55:20;12;11;
72329;PMS5003;69154;52.076;5.110;2023-06-14T05:57:45;14;12;
72329;PMS5003;69154;52.076;5.110;2023-06-14T06:00:10;13;11;
72329;PMS5003;69154;52.076;5.110;2023-06-14T06:02:35;11;10;
72329;PMS5003;69154;52.076;5.110;2023-06-14T06:05:00;13;13;
72329;PMS5003;69154;52.076;5.110;2023-06-14T06:07:25;12;12;
72329;PMS5003;69154;52.076;5.110;2023-06-14T06:09:50;15;15;
72329;PMS5003;69154;52.076;5.110;2023-06-14T06:12:15;12;11;
72329;PMS5003;69154;52.076;5.110;2023-06-14T06:14:40;14;14;
72329;PMS5003;69154;52.076;5.110;2023-06-14T06:17:05;14;13;
72329;PMS5003;69154;52.076;5.110;2023-06-14T06:19:30;13;13;
72329;PMS5003;69154;52.076;5.110;2023-06-14T06:21:56;12;12;
72329;PMS5003;69154;52.076;5.110;2023-06-14T06:24:21;12;12;
72329;PMS5003;69154;52.076;5.110;2023-06-14T06:26:46;13;13;
72329;PMS5003;69154;52.076;5.110;2023-06-14T06:29:11;15;15;
72329;PMS5003;69154;52.076;5.110;2023-06-14T06:31:37;13;13;
72329;PMS5003;69154;52.076;5.110;2023-06-14T06:34:02;17;15;
72329;PMS5003;69154;52.076;5.110;2023-06-14T06:36:27;12;12;
72329;PMS5003;69154;52.076;5.110;2023-06-14T06:38:52;15;15;
72329;PMS5003;69154;52.076;5.110;2023-06-14T06:41:18;11;11;
72329;PMS5003;69154;52.076;5.110;2023-06-14T06:43:42;12;11;
72329;PMS5003;69154;52.076;5.110;2023-06-14T06:46:07;12;11;
72329;PMS5003;69154;52.076;5.110;2023-06-14T06:48:33;14;13;
72329;PMS5003;69154;52.076;5.110;2023-06-14T06:50:58;14;14;
72329;PMS5003;69154;52.076;5.110;2023-06-14T06:53:23;13;12;
72329;PMS5003;69154;52.076;5.110;2023-06-14T06:55:48;13;12;
72329;PMS5003;69154;52.076;5.110;2023-06-14T06:58:13;11;11;
72329;PMS5003;69154;52.076;5.110;2023-06-14T07:00:38;12;12;
72329;PMS5003;69154;52.076;5.110;2023-06-14T07:03:04;11;11;
72329;PMS5003;69154;52.076;5.110;2023-06-14T07:05:29;13;13;
72329;PMS5003;69154;52.076;5.110;2023-06-14T07:07:54;12;10;
72329;PMS5003;69154;52.076;5.110;2023-06-14T07:10:19;12;12;
72329;PMS5003;69154;52.076;5.110;2023-06-14T07:12:45;12;12;
72329;PMS5003;69154;52.076;5.110;2023-06-14T07:15:11;13;13;
72329;PMS5003;69154;52.076;5.110;2023-06-14T07:17:35;12;12;
72329;PMS5003;69154;52.076;5.110;2023-06-14T07:20:02;12;12;
72329;PMS5003;69154;52.076;5.110;2023-06-14T07:22:27;13;13;
72329;PMS5003;69154;52.076;5.110;2023-06-14T07:24:53;15;15;
72329;PMS5003;69154;52.076;5.110;2023-06-14T07:27:19;13;13;
72329;PMS5003;69154;52.076;5.110;2023-06-14T07:29:45;14;14;
72329;PMS5003;69154;52.076;5.110;2023-06-14T07:32:10;15;14;
72329;PMS5003;69154;52.076;5.110;2023-06-14T07:34:36;14;14;
72329;PMS5003;69154;52.076;5.110;2023-06-14T07:37:02;15;15;
72329;PMS5003;69154;52.076;5.110;2023-06-14T07:39:28;13;13;
72329;PMS5003;69154;52.076;5.110;2023-06-14T07:41:53;13;12;
72329;PMS5003;69154;52.076;5.110;2023-06-14T07:44:19;14;14;
72329;PMS5003;69154;52.076;5.110;2023-06-14T07:46:45;14;13;
72329;PMS5003;69154;52.076;5.110;2023-06-14T07:49:11;15;14;
72329;PMS5003;69154;52.076;5.110;2023-06-14T07:51:36;15;15;
72329;PMS5003;69154;52.076;5.110;2023-06-14T07:54:02;17;15;
72329;PMS5003;69154;52.076;5.110;2023-06-14T07:56:28;16;15;
72329;PMS5003;69154;52.076;5.110;2023-06-14T07:58:54;16;15;
72329;PMS5003;69154;52.076;5.110;2023-06-14T08:01:20;12;11;
72329;PMS5003;69154;52.076;5.110;2023-06-14T08:03:45;13;13;
72329;PMS5003;69154;52.076;5.110;2023-06-14T08:06:11;11;11;
72329;PMS5003;69154;52.076;5.110;2023-06-14T08:08:37;14;13;
72329;PMS5003;69154;52.076;5.110;2023-06-14T08:11:03;14;14;
72329;PMS5003;69154;52.076;5.110;2023-06-14T08:13:28;12;12;
72329;PMS5003;69154;52.076;5.110;2023-06-14T08:15:54;12;11;
72329;PMS5003;69154;52.076;5.110;2023-06-14T08:18:20;12;12;
72329;PMS5003;69154;52.076;5.110;2023-06-14T08:20:46;13;12;
72329;PMS5003;69154;52.076;5.110;2023-06-14T08:23:11;13;13;
72329;PMS5003;69154;52.076;5.110;2023-06-14T08:25:37;9;9;
72329;PMS5003;69154;52.076;5.110;2023-06-14T08:28:03;12;12;
72329;PMS5003;69154;52.076;5.110;2023-06-14T08:30:29;10;10;
72329;PMS5003;69154;52.076;5.110;2023-06-14T08:32:54;12;10;
72329;PMS5003;69154;52.076;5.110;2023-06-14T08:35:20;12;11;
72329;PMS5003;69154;52.076;5.110;2023-06-14T08:37:46;11;11;
72329;PMS5003;69154;52.076;5.110;2023-06-14T08:40:16;11;10;
72329;PMS5003;69154;52.076;5.110;2023-06-14T08:42:37;12;12;
72329;PMS5003;69154;52.076;5.110;2023-06-14T08:45:03;9;9;
72329;PMS5003;69154;52.076;5.110;2023-06-14T08:47:29;9;9;
72329;PMS5003;69154;52.076;5.110;2023-06-14T08:49:54;9;9;
72329;PMS5003;69154;52.076;5.110;2023-06-14T08:52:20;11;10;
72329;PMS5003;69154;52.076;5.110;2023-06-14T08:54:46;10;9;
72329;PMS5003;69154;52.076;5.110;2023-06-14T08:57:12;11;10;
72329;PMS5003;69154;52.076;5.110;2023-06-14T08:59:38;8;8;
72329;PMS5003;69154;52.076;5.110;2023-06-14T09:02:03;9;8;
72329;PMS5003;69154;52.076;5.110;2023-06-14T09:04:29;7;7;
72329;PMS5003;69154;52.076;5.110;2023-06-14T09:06:55;8;7;
72329;PMS5003;69154;52.076;5.110;2023-06-14T09:09:21;9;9;
72329;PMS5003;69154;52.076;5.110;2023-06-14T09:11:46;9;8;
72329;PMS5003;69154;52.076;5.110;2023-06-14T09:14:12;8;7;
72329;PMS5003;69154;52.076;5.110;2023-06-14T09:16:38;7;7;
72329;PMS5003;69154;52.076;5.110;2023-06-14T09:19:03;9;8;
72329;PMS5003;69154;52.076;5.110;2023-06-14T09:21:29;8;8;
72329;PMS5003;69154;52.076;5.110;2023-06-14T09:23:55;6;6;
72329;PMS5003;69154;52.076;5.110;2023-06-14T09:26:21;8;8;
72329;PMS5003;69154;52.076;5.110;2023-06-14T09:28:47;8;8;
72329;PMS5003;69154;52.076;5.110;2023-06-14T09:31:13;8;7;
72329;PMS5003;69154;52.076;5.110;2023-06-14T09:33:38;7;7;
72329;PMS5003;69154;52.076;5.110;2023-06-14T09:36:04;5;5;
72329;PMS5003;69154;52.076;5.110;2023-06-14T09:38:29;6;5;
72329;PMS5003;69154;52.076;5.110;2023-06-14T09:40:56;5;5;
72329;PMS5003;69154;52.076;5.110;2023-06-14T09:43:20;5;5;
72329;PMS5003;69154;52.076;5.110;2023-06-14T09:45:46;6;6;
72329;PMS5003;69154;52.076;5.110;2023-06-14T09:48:11;7;7;
72329;PMS5003;69154;52.076;5.110;2023-06-14T09:50:37;5;5;
72329;PMS5003;69154;52.076;5.110;2023-06-14T09:53:02;7;7;
72329;PMS5003;69154;52.076;5.110;2023-06-14T09:55:28;7;6;
72329;PMS5003;69154;52.076;5.110;2023-06-14T09:57:53;5;5;
72329;PMS5003;69154;52.076;5.110;2023-06-14T10:00:19;6;5;
72329;PMS5003;69154;52.076;5.110;2023-06-14T10:02:44;3;3;
72329;PMS5003;69154;52.076;5.110;2023-06-14T10:05:11;5;5;
72329;PMS5003;69154;52.076;5.110;2023-06-14T10:10:01;4;4;
72329;PMS5003;69154;52.076;5.110;2023-06-14T10:12:26;4;4;
72329;PMS5003;69154;52.076;5.110;2023-06-14T10:14:52;5;5;
72329;PMS5003;69154;52.076;5.110;2023-06-14T10:17:20;5;5;
72329;PMS5003;69154;52.076;5.110;2023-06-14T10:19:44;5;5;
72329;PMS5003;69154;52.076;5.110;2023-06-14T10:22:09;4;4;
72329;PMS5003;69154;52.076;5.110;2023-06-14T10:24:35;6;6;
72329;PMS5003;69154;52.076;5.110;2023-06-14T10:26:59;3;3;
72329;PMS5003;69154;52.076;5.110;2023-06-14T10:29:25;4;4;
72329;PMS5003;69154;52.076;5.110;2023-06-14T10:31:50;5;5;
72329;PMS5003;69154;52.076;5.110;2023-06-14T10:34:23;4;4;
72329;PMS5003;69154;52.076;5.110;2023-06-14T10:36:41;5;5;
72329;PMS5003;69154;52.076;5.110;2023-06-14T10:39:07;5;5;
72329;PMS5003;69154;52.076;5.110;2023-06-14T10:41:34;4;4;
72329;PMS5003;69154;52.076;5.110;2023-06-14T10:45:03;5;5;
72329;PMS5003;69154;52.076;5.110;2023-06-14T10:46:23;5;4;
72329;PMS5003;69154;52.076;5.110;2023-06-14T10:48:49;3;3;
72329;PMS5003;69154;52.076;5.110;2023-06-14T10:51:16;6;6;
72329;PMS5003;69154;52.076;5.110;2023-06-14T10:53:39;5;5;
72329;PMS5003;69154;52.076;5.110;2023-06-14T10:56:06;6;6;
72329;PMS5003;69154;52.076;5.110;2023-06-14T10:58:30;5;4;
72329;PMS5003;69154;52.076;5.110;2023-06-14T11:00:56;5;5;
72329;PMS5003;69154;52.076;5.110;2023-06-14T11:03:29;4;4;
72329;PMS5003;69154;52.076;5.110;2023-06-14T11:05:50;5;3;
72329;PMS5003;69154;52.076;5.110;2023-06-14T11:08:17;5;4;
72329;PMS5003;69154;52.076;5.110;2023-06-14T11:10:38;6;6;
72329;PMS5003;69154;52.076;5.110;2023-06-14T11:13:03;6;6;
72329;PMS5003;69154;52.076;5.110;2023-06-14T11:15:29;4;4;
72329;PMS5003;69154;52.076;5.110;2023-06-14T11:17:54;4;4;
72329;PMS5003;69154;52.076;5.110;2023-06-14T11:20:20;5;5;
72329;PMS5003;69154;52.076;5.110;2023-06-14T11:22:45;5;5;
72329;PMS5003;69154;52.076;5.110;2023-06-14T11:25:11;5;5;
72329;PMS5003;69154;52.076;5.110;2023-06-14T11:27:36;3;3;
72329;PMS5003;69154;52.076;5.110;2023-06-14T11:30:02;6;6;
72329;PMS5003;69154;52.076;5.110;2023-06-14T11:32:27;5;5;
72329;PMS5003;69154;52.076;5.110;2023-06-14T11:34:53;5;4;
72329;PMS5003;69154;52.076;5.110;2023-06-14T11:37:18;5;5;
72329;PMS5003;69154;52.076;5.110;2023-06-14T11:39:44;6;6;
72329;PMS5003;69154;52.076;5.110;2023-06-14T11:42:13;5;5;
72329;PMS5003;69154;52.076;5.110;2023-06-14T11:44:34;5;5;
72329;PMS5003;69154;52.076;5.110;2023-06-14T11:47:03;5;5;
72329;PMS5003;69154;52.076;5.110;2023-06-14T11:49:25;6;6;
72329;PMS5003;69154;52.076;5.110;2023-06-14T11:51:51;5;5;
72329;PMS5003;69154;52.076;5.110;2023-06-14T11:54:16;5;5;
72329;PMS5003;69154;52.076;5.110;2023-06-14T11:56:42;5;5;
72329;PMS5003;69154;52.076;5.110;2023-06-14T11:59:07;4;4;
72329;PMS5003;69154;52.076;5.110;2023-06-14T12:01:35;5;4;
72329;PMS5003;69154;52.076;5.110;2023-06-14T12:03:58;5;5;
72329;PMS5003;69154;52.076;5.110;2023-06-14T12:06:25;5;5;
72329;PMS5003;69154;52.076;5.110;2023-06-14T12:08:49;4;4;
72329;PMS5003;69154;52.076;5.110;2023-06-14T12:11:14;5;5;
72329;PMS5003;69154;52.076;5.110;2023-06-14T12:13:40;6;6;
72329;PMS5003;69154;52.076;5.110;2023-06-14T12:16:06;5;5;
72329;PMS5003;69154;52.076;5.110;2023-06-14T12:18:31;4;4;
72329;PMS5003;69154;52.076;5.110;2023-06-14T12:20:58;4;4;
72329;PMS5003;69154;52.076;5.110;2023-06-14T12:23:22;5;5;
72329;PMS5003;69154;52.076;5.110;2023-06-14T12:25:47;6;5;
72329;PMS5003;69154;52.076;5.110;2023-06-14T12:28:12;4;4;
72329;PMS5003;69154;52.076;5.110;2023-06-14T12:30:38;5;4;
72329;PMS5003;69154;52.076;5.110;2023-06-14T12:33:03;5;5;
72329;PMS5003;69154;52.076;5.110;2023-06-14T12:35:29;6;5;
72329;PMS5003;69154;52.076;5.110;2023-06-14T12:37:54;4;4;
72329;PMS5003;69154;52.076;5.110;2023-06-14T12:40:19;8;7;
72329;PMS5003;69154;52.076;5.110;2023-06-14T12:42:45;4;4;
72329;PMS5003;69154;52.076;5.110;2023-06-14T12:45:10;5;5;
72329;PMS5003;69154;52.076;5.110;2023-06-14T12:47:35;5;5;
72329;PMS5003;69154;52.076;5.110;2023-06-14T12:50:01;5;5;
72329;PMS5003;69154;52.076;5.110;2023-06-14T12:52:26;6;6;
72329;PMS5003;69154;52.076;5.110;2023-06-14T12:54:52;5;5;
72329;PMS5003;69154;52.076;5.110;2023-06-14T12:57:17;5;5;
72329;PMS5003;69154;52.076;5.110;2023-06-14T12:59:42;5;5;
72329;PMS5003;69154;52.076;5.110;2023-06-14T13:02:12;6;6;
72329;PMS5003;69154;52.076;5.110;2023-06-14T13:04:34;4;3;
72329;PMS5003;69154;52.076;5.110;2023-06-14T13:06:59;6;6;
72329;PMS5003;69154;52.076;5.110;2023-06-14T13:09:24;3;3;
72329;PMS5003;69154;52.076;5.110;2023-06-14T13:11:49;6;6;
72329;PMS5003;69154;52.076;5.110;2023-06-14T13:14:15;7;7;
72329;PMS5003;69154;52.076;5.110;2023-06-14T13:16:40;6;6;
72329;PMS5003;69154;52.076;5.110;2023-06-14T13:19:06;5;5;
72329;PMS5003;69154;52.076;5.110;2023-06-14T13:21:31;5;5;
72329;PMS5003;69154;52.076;5.110;2023-06-14T13:23:56;5;5;
72329;PMS5003;69154;52.076;5.110;2023-06-14T13:26:22;4;4;
72329;PMS5003;69154;52.076;5.110;2023-06-14T13:28:47;5;5;
72329;PMS5003;69154;52.076;5.110;2023-06-14T13:31:13;7;7;
72329;PMS5003;69154;52.076;5.110;2023-06-14T13:33:38;5;4;
72329;PMS5003;69154;52.076;5.110;2023-06-14T13:36:04;5;5;
72329;PMS5003;69154;52.076;5.110;2023-06-14T13:38:29;7;7;
72329;PMS5003;69154;52.076;5.110;2023-06-14T13:40:54;5;5;
72329;PMS5003;69154;52.076;5.110;2023-06-14T13:43:19;6;5;
72329;PMS5003;69154;52.076;5.110;2023-06-14T13:45:45;6;6;
72329;PMS5003;69154;52.076;5.110;2023-06-14T13:48:10;5;5;
72329;PMS5003;69154;52.076;5.110;2023-06-14T13:50:35;5;5;
72329;PMS5003;69154;52.076;5.110;2023-06-14T13:53:01;4;4;
72329;PMS5003;69154;52.076;5.110;2023-06-14T13:55:26;6;4;
72329;PMS5003;69154;52.076;5.110;2023-06-14T13:57:51;3;3;
72329;PMS5003;69154;52.076;5.110;2023-06-14T14:00:17;4;4;
72329;PMS5003;69154;52.076;5.110;2023-06-14T14:02:42;5;5;
72329;PMS5003;69154;52.076;5.110;2023-06-14T14:05:08;4;4;
72329;PMS5003;69154;52.076;5.110;2023-06-14T14:07:33;4;4;
72329;PMS5003;69154;52.076;5.110;2023-06-14T14:09:58;5;5;
72329;PMS5003;69154;52.076;5.110;2023-06-14T14:12:24;7;6;
72329;PMS5003;69154;52.076;5.110;2023-06-14T14:14:49;5;5;
72329;PMS5003;69154;52.076;5.110;2023-06-14T14:17:15;6;6;
72329;PMS5003;69154;52.076;5.110;2023-06-14T14:19:40;6;5;
72329;PMS5003;69154;52.076;5.110;2023-06-14T14:22:06;5;5;
72329;PMS5003;69154;52.076;5.110;2023-06-14T14:24:31;6;5;
72329;PMS5003;69154;52.076;5.110;2023-06-14T14:26:56;6;6;
72329;PMS5003;69154;52.076;5.110;2023-06-14T14:29:22;6;5;
72329;PMS5003;69154;52.076;5.110;2023-06-14T14:31:47;6;6;
72329;PMS5003;69154;52.076;5.110;2023-06-14T14:34:13;5;4;
72329;PMS5003;69154;52.076;5.110;2023-06-14T14:36:38;6;6;
72329;PMS5003;69154;52.076;5.110;2023-06-14T14:39:04;5;5;
72329;PMS5003;69154;52.076;5.110;2023-06-14T14:41:29;5;5;
72329;PMS5003;69154;52.076;5.110;2023-06-14T14:43:54;7;7;
72329;PMS5003;69154;52.076;5.110;2023-06-14T14:46:20;5;5;
72329;PMS5003;69154;52.076;5.110;2023-06-14T14:48:45;6;6;
72329;PMS5003;69154;52.076;5.110;2023-06-14T14:51:11;5;5;
72329;PMS5003;69154;52.076;5.110;2023-06-14T14:53:36;5;4;
72329;PMS5003;69154;52.076;5.110;2023-06-14T14:56:02;5;5;
72329;PMS5003;69154;52.076;5.110;2023-06-14T14:58:27;6;5;
72329;PMS5003;69154;52.076;5.110;2023-06-14T15:00:52;6;6;
72329;PMS5003;69154;52.076;5.110;2023-06-14T15:03:18;5;5;
72329;PMS5003;69154;52.076;5.110;2023-06-14T15:05:43;6;6;
72329;PMS5003;69154;52.076;5.110;2023-06-14T15:08:09;6;6;
72329;PMS5003;69154;52.076;5.110;2023-06-14T15:10:34;5;5;
72329;PMS5003;69154;52.076;5.110;2023-06-14T15:13:00;6;6;
72329;PMS5003;69154;52.076;5.110;2023-06-14T15:15:25;5;5;
72329;PMS5003;69154;52.076;5.110;2023-06-14T15:17:51;6;6;
72329;PMS5003;69154;52.076;5.110;2023-06-14T15:20:16;5;5;
72329;PMS5003;69154;52.076;5.110;2023-06-14T15:22:41;3;3;
72329;PMS5003;69154;52.076;5.110;2023-06-14T15:25:07;6;6;
72329;PMS5003;69154;52.076;5.110;2023-06-14T15:27:32;4;4;
72329;PMS5003;69154;52.076;5.110;2023-06-14T15:29:58;4;4;
72329;PMS5003;69154;52.076;5.110;2023-06-14T15:32:23;4;4;
72329;PMS5003;69154;52.076;5.110;2023-06-14T15:34:48;5;5;
72329;PMS5003;69154;52.076;5.110;2023-06-14T15:37:14;5;4;
72329;PMS5003;69154;52.076;5.110;2023-06-14T15:39:39;5;5;
72329;PMS5003;69154;52.076;5.110;2023-06-14T15:42:05;5;5;
72329;PMS5003;69154;52.076;5.110;2023-06-14T15:44:30;4;4;
72329;PMS5003;69154;52.076;5.110;2023-06-14T15:46:55;4;4;
72329;PMS5003;69154;52.076;5.110;2023-06-14T15:49:21;4;4;
72329;PMS5003;69154;52.076;5.110;2023-06-14T15:51:46;5;5;
72329;PMS5003;69154;52.076;5.110;2023-06-14T15:54:12;5;5;
72329;PMS5003;69154;52.076;5.110;2023-06-14T15:56:37;4;4;
72329;PMS5003;69154;52.076;5.110;2023-06-14T15:59:03;4;4;
72329;PMS5003;69154;52.076;5.110;2023-06-14T16:01:28;4;4;
72329;PMS5003;69154;52.076;5.110;2023-06-14T16:03:54;4;4;
72329;PMS5003;69154;52.076;5.110;2023-06-14T16:06:19;5;5;
72329;PMS5003;69154;52.076;5.110;2023-06-14T16:08:44;5;5;
72329;PMS5003;69154;52.076;5.110;2023-06-14T16:11:10;5;5;
72329;PMS5003;69154;52.076;5.110;2023-06-14T16:13:35;5;5;
72329;PMS5003;69154;52.076;5.110;2023-06-14T16:16:01;4;4;
72329;PMS5003;69154;52.076;5.110;2023-06-14T16:18:26;5;5;
72329;PMS5003;69154;52.076;5.110;2023-06-14T16:20:52;4;4;
72329;PMS5003;69154;52.076;5.110;2023-06-14T16:23:17;6;5;